sensor_id;sensor_type;location;lat;lon;timestamp;P1;durP1;ratioP1;P2;durP2;ratioP2
76566;SDS011;65428;53.194;6.132;2022-12-18T00:01:51;117.32;;;54.40;;
76566;SDS011;65428;53.194;6.132;2022-12-18T00:04:21;125.72;;;53.85;;
76566;SDS011;65428;53.194;6.132;2022-12-18T00:06:48;119.15;;;53.35;;
76566;SDS011;65428;53.194;6.132;2022-12-18T00:09:14;118.90;;;53.05;;
76566;SDS011;65428;53.194;6.132;2022-12-18T00:11:39;115.00;;;52.40;;
76566;SDS011;65428;53.194;6.132;2022-12-18T00:14:05;114.53;;;52.80;;
76566;SDS011;65428;53.194;6.132;2022-12-18T00:16:31;122.23;;;53.40;;
76566;SDS011;65428;53.194;6.132;2022-12-18T00:18:58;112.30;;;51.70;;
76566;SDS011;65428;53.194;6.132;2022-12-18T00:21:25;119.57;;;53.00;;
76566;SDS011;65428;53.194;6.132;2022-12-18T00:23:52;118.88;;;53.40;;
76566;SDS011;65428;53.194;6.132;2022-12-18T00:26:18;118.82;;;53.42;;
76566;SDS011;65428;53.194;6.132;2022-12-18T00:28:46;117.13;;;52.28;;
76566;SDS011;65428;53.194;6.132;2022-12-18T00:31:13;118.95;;;54.42;;
76566;SDS011;65428;53.194;6.132;2022-12-18T00:33:41;117.33;;;53.47;;
76566;SDS011;65428;53.194;6.132;2022-12-18T00:36:07;127.80;;;55.63;;
76566;SDS011;65428;53.194;6.132;2022-12-18T00:38:38;130.85;;;56.92;;
76566;SDS011;65428;53.194;6.132;2022-12-18T00:41:04;136.03;;;56.23;;
76566;SDS011;65428;53.194;6.132;2022-12-18T00:43:31;130.93;;;56.03;;
76566;SDS011;65428;53.194;6.132;2022-12-18T00:45:57;121.17;;;52.70;;
76566;SDS011;65428;53.194;6.132;2022-12-18T00:48:22;126.87;;;54.07;;
76566;SDS011;65428;53.194;6.132;2022-12-18T00:50:48;122.32;;;51.85;;
76566;SDS011;65428;53.194;6.132;2022-12-18T00:53:14;122.22;;;52.42;;
76566;SDS011;65428;53.194;6.132;2022-12-18T00:55:40;140.18;;;56.83;;
76566;SDS011;65428;53.194;6.132;2022-12-18T00:58:07;131.77;;;56.13;;
76566;SDS011;65428;53.194;6.132;2022-12-18T01:00:33;142.63;;;56.50;;
76566;SDS011;65428;53.194;6.132;2022-12-18T01:02:59;142.38;;;54.95;;
76566;SDS011;65428;53.194;6.132;2022-12-18T01:05:25;132.13;;;54.37;;
76566;SDS011;65428;53.194;6.132;2022-12-18T01:07:50;134.20;;;55.05;;
76566;SDS011;65428;53.194;6.132;2022-12-18T01:10:16;125.20;;;52.43;;
76566;SDS011;65428;53.194;6.132;2022-12-18T01:12:42;116.83;;;51.07;;
76566;SDS011;65428;53.194;6.132;2022-12-18T01:15:07;113.00;;;49.60;;
76566;SDS011;65428;53.194;6.132;2022-12-18T01:17:34;118.82;;;49.80;;
76566;SDS011;65428;53.194;6.132;2022-12-18T01:20:00;114.65;;;50.50;;
76566;SDS011;65428;53.194;6.132;2022-12-18T01:22:26;114.85;;;49.95;;
76566;SDS011;65428;53.194;6.132;2022-12-18T01:24:51;117.25;;;49.83;;
76566;SDS011;65428;53.194;6.132;2022-12-18T01:27:17;112.63;;;48.83;;
76566;SDS011;65428;53.194;6.132;2022-12-18T01:29:43;128.80;;;52.33;;
76566;SDS011;65428;53.194;6.132;2022-12-18T01:32:08;124.20;;;51.50;;
76566;SDS011;65428;53.194;6.132;2022-12-18T01:34:35;112.95;;;50.15;;
76566;SDS011;65428;53.194;6.132;2022-12-18T01:37:05;126.75;;;53.10;;
76566;SDS011;65428;53.194;6.132;2022-12-18T01:39:31;129.82;;;52.75;;
76566;SDS011;65428;53.194;6.132;2022-12-18T01:41:57;125.43;;;50.40;;
76566;SDS011;65428;53.194;6.132;2022-12-18T01:49:47;119.93;;;49.80;;
76566;SDS011;65428;53.194;6.132;2022-12-18T01:52:13;121.43;;;50.37;;
76566;SDS011;65428;53.194;6.132;2022-12-18T01:54:39;125.40;;;52.43;;
76566;SDS011;65428;53.194;6.132;2022-12-18T01:57:05;129.23;;;51.27;;
76566;SDS011;65428;53.194;6.132;2022-12-18T01:59:31;128.37;;;50.70;;
76566;SDS011;65428;53.194;6.132;2022-12-18T02:01:58;134.45;;;52.55;;
76566;SDS011;65428;53.194;6.132;2022-12-18T02:04:25;128.05;;;51.90;;
76566;SDS011;65428;53.194;6.132;2022-12-18T02:06:57;125.22;;;50.83;;
76566;SDS011;65428;53.194;6.132;2022-12-18T02:10:03;111.60;;;47.90;;
76566;SDS011;65428;53.194;6.132;2022-12-18T02:15:15;118.78;;;49.00;;
76566;SDS011;65428;53.194;6.132;2022-12-18T02:17:54;127.60;;;50.97;;
76566;SDS011;65428;53.194;6.132;2022-12-18T02:20:33;124.43;;;49.13;;
76566;SDS011;65428;53.194;6.132;2022-12-18T02:28:45;134.40;;;51.83;;
76566;SDS011;65428;53.194;6.132;2022-12-18T02:31:17;142.27;;;52.92;;
76566;SDS011;65428;53.194;6.132;2022-12-18T02:33:46;142.48;;;51.50;;
76566;SDS011;65428;53.194;6.132;2022-12-18T02:36:14;134.63;;;51.13;;
76566;SDS011;65428;53.194;6.132;2022-12-18T02:38:41;125.90;;;49.85;;
76566;SDS011;65428;53.194;6.132;2022-12-18T02:41:09;120.00;;;48.30;;
76566;SDS011;65428;53.194;6.132;2022-12-18T02:43:36;129.80;;;49.30;;
76566;SDS011;65428;53.194;6.132;2022-12-18T02:46:20;137.40;;;51.37;;
76566;SDS011;65428;53.194;6.132;2022-12-18T02:48:54;126.55;;;49.30;;
76566;SDS011;65428;53.194;6.132;2022-12-18T02:51:29;131.75;;;50.28;;
76566;SDS011;65428;53.194;6.132;2022-12-18T02:54:10;126.93;;;49.97;;
76566;SDS011;65428;53.194;6.132;2022-12-18T02:57:01;143.07;;;50.80;;
76566;SDS011;65428;53.194;6.132;2022-12-18T02:59:44;124.57;;;49.75;;
76566;SDS011;65428;53.194;6.132;2022-12-18T03:02:24;124.72;;;49.28;;
76566;SDS011;65428;53.194;6.132;2022-12-18T03:07:46;111.75;;;46.35;;
76566;SDS011;65428;53.194;6.132;2022-12-18T03:10:18;122.72;;;48.58;;
76566;SDS011;65428;53.194;6.132;2022-12-18T03:12:51;120.53;;;49.00;;
76566;SDS011;65428;53.194;6.132;2022-12-18T03:15:25;141.60;;;52.47;;
76566;SDS011;65428;53.194;6.132;2022-12-18T03:18:03;134.65;;;51.25;;
76566;SDS011;65428;53.194;6.132;2022-12-18T03:20:35;125.68;;;49.03;;
76566;SDS011;65428;53.194;6.132;2022-12-18T03:23:07;131.32;;;51.70;;
76566;SDS011;65428;53.194;6.132;2022-12-18T03:25:41;132.23;;;50.28;;
76566;SDS011;65428;53.194;6.132;2022-12-18T03:28:16;138.90;;;52.72;;
76566;SDS011;65428;53.194;6.132;2022-12-18T03:30:47;135.55;;;50.60;;
76566;SDS011;65428;53.194;6.132;2022-12-18T03:33:19;139.82;;;51.70;;
76566;SDS011;65428;53.194;6.132;2022-12-18T03:35:52;123.00;;;48.60;;
76566;SDS011;65428;53.194;6.132;2022-12-18T03:38:18;148.65;;;54.08;;
76566;SDS011;65428;53.194;6.132;2022-12-18T03:43:38;138.88;;;53.67;;
76566;SDS011;65428;53.194;6.132;2022-12-18T03:49:15;133.07;;;51.73;;
76566;SDS011;65428;53.194;6.132;2022-12-18T03:52:05;130.65;;;52.28;;
76566;SDS011;65428;53.194;6.132;2022-12-18T03:54:36;126.85;;;49.50;;
76566;SDS011;65428;53.194;6.132;2022-12-18T03:57:11;122.97;;;49.40;;
76566;SDS011;65428;53.194;6.132;2022-12-18T03:59:41;127.50;;;50.75;;
76566;SDS011;65428;53.194;6.132;2022-12-18T04:02:09;124.13;;;50.33;;
76566;SDS011;65428;53.194;6.132;2022-12-18T04:04:38;122.05;;;50.38;;
76566;SDS011;65428;53.194;6.132;2022-12-18T04:07:05;107.10;;;46.95;;
76566;SDS011;65428;53.194;6.132;2022-12-18T04:09:32;120.13;;;49.90;;
76566;SDS011;65428;53.194;6.132;2022-12-18T04:11:59;124.85;;;51.35;;
76566;SDS011;65428;53.194;6.132;2022-12-18T04:14:25;117.63;;;48.87;;
76566;SDS011;65428;53.194;6.132;2022-12-18T04:16:50;111.23;;;48.57;;
76566;SDS011;65428;53.194;6.132;2022-12-18T04:19:16;117.43;;;50.42;;
76566;SDS011;65428;53.194;6.132;2022-12-18T04:21:41;105.63;;;48.03;;
76566;SDS011;65428;53.194;6.132;2022-12-18T04:24:07;112.50;;;49.90;;
76566;SDS011;65428;53.194;6.132;2022-12-18T04:26:33;120.40;;;51.63;;
76566;SDS011;65428;53.194;6.132;2022-12-18T04:28:59;111.95;;;49.40;;
76566;SDS011;65428;53.194;6.132;2022-12-18T04:31:24;113.07;;;51.00;;
76566;SDS011;65428;53.194;6.132;2022-12-18T04:33:50;107.50;;;48.40;;
76566;SDS011;65428;53.194;6.132;2022-12-18T04:36:16;105.78;;;47.60;;
76566;SDS011;65428;53.194;6.132;2022-12-18T04:38:41;99.40;;;47.08;;
76566;SDS011;65428;53.194;6.132;2022-12-18T04:41:07;106.07;;;48.17;;
76566;SDS011;65428;53.194;6.132;2022-12-18T04:43:33;100.83;;;47.30;;
76566;SDS011;65428;53.194;6.132;2022-12-18T04:46:05;108.97;;;49.03;;
76566;SDS011;65428;53.194;6.132;2022-12-18T04:48:32;104.50;;;47.47;;
76566;SDS011;65428;53.194;6.132;2022-12-18T04:50:58;99.38;;;47.97;;
76566;SDS011;65428;53.194;6.132;2022-12-18T04:53:23;96.93;;;46.03;;
76566;SDS011;65428;53.194;6.132;2022-12-18T04:55:49;94.60;;;45.80;;
76566;SDS011;65428;53.194;6.132;2022-12-18T04:58:15;89.80;;;44.50;;
76566;SDS011;65428;53.194;6.132;2022-12-18T05:00:40;91.82;;;44.60;;
76566;SDS011;65428;53.194;6.132;2022-12-18T05:03:06;89.70;;;44.47;;
76566;SDS011;65428;53.194;6.132;2022-12-18T05:05:34;89.30;;;44.03;;
76566;SDS011;65428;53.194;6.132;2022-12-18T05:08:00;85.82;;;43.15;;
76566;SDS011;65428;53.194;6.132;2022-12-18T05:10:25;89.93;;;43.87;;
76566;SDS011;65428;53.194;6.132;2022-12-18T05:12:51;88.43;;;43.80;;
76566;SDS011;65428;53.194;6.132;2022-12-18T05:15:26;83.60;;;42.10;;
76566;SDS011;65428;53.194;6.132;2022-12-18T05:17:59;88.57;;;44.28;;
76566;SDS011;65428;53.194;6.132;2022-12-18T05:20:25;86.93;;;43.53;;
76566;SDS011;65428;53.194;6.132;2022-12-18T05:22:52;84.82;;;42.38;;
76566;SDS011;65428;53.194;6.132;2022-12-18T05:25:18;79.53;;;40.80;;
76566;SDS011;65428;53.194;6.132;2022-12-18T05:27:44;81.25;;;41.55;;
76566;SDS011;65428;53.194;6.132;2022-12-18T05:30:10;81.38;;;40.88;;
76566;SDS011;65428;53.194;6.132;2022-12-18T05:32:36;81.05;;;40.90;;
76566;SDS011;65428;53.194;6.132;2022-12-18T05:35:03;77.10;;;38.92;;
76566;SDS011;65428;53.194;6.132;2022-12-18T05:37:30;77.43;;;39.42;;
76566;SDS011;65428;53.194;6.132;2022-12-18T05:39:55;82.17;;;41.17;;
76566;SDS011;65428;53.194;6.132;2022-12-18T05:42:21;75.25;;;38.13;;
76566;SDS011;65428;53.194;6.132;2022-12-18T05:44:46;76.32;;;39.38;;
76566;SDS011;65428;53.194;6.132;2022-12-18T05:47:12;73.00;;;37.23;;
76566;SDS011;65428;53.194;6.132;2022-12-18T05:49:38;72.37;;;36.73;;
76566;SDS011;65428;53.194;6.132;2022-12-18T05:52:03;70.53;;;38.17;;
76566;SDS011;65428;53.194;6.132;2022-12-18T05:54:29;71.90;;;37.15;;
76566;SDS011;65428;53.194;6.132;2022-12-18T05:56:56;72.93;;;37.88;;
76566;SDS011;65428;53.194;6.132;2022-12-18T05:59:22;72.50;;;37.10;;
76566;SDS011;65428;53.194;6.132;2022-12-18T06:01:47;70.50;;;37.38;;
76566;SDS011;65428;53.194;6.132;2022-12-18T06:04:13;72.75;;;38.35;;
76566;SDS011;65428;53.194;6.132;2022-12-18T06:06:39;71.63;;;35.85;;
76566;SDS011;65428;53.194;6.132;2022-12-18T06:09:05;66.88;;;35.08;;
76566;SDS011;65428;53.194;6.132;2022-12-18T06:11:38;69.75;;;35.95;;
76566;SDS011;65428;53.194;6.132;2022-12-18T06:14:04;68.93;;;35.38;;
76566;SDS011;65428;53.194;6.132;2022-12-18T06:16:31;66.45;;;35.65;;
76566;SDS011;65428;53.194;6.132;2022-12-18T06:18:58;71.05;;;36.15;;
76566;SDS011;65428;53.194;6.132;2022-12-18T06:21:28;71.63;;;37.00;;
76566;SDS011;65428;53.194;6.132;2022-12-18T06:23:54;71.35;;;35.58;;
76566;SDS011;65428;53.194;6.132;2022-12-18T06:26:19;68.77;;;36.33;;
76566;SDS011;65428;53.194;6.132;2022-12-18T06:28:45;67.00;;;34.70;;
76566;SDS011;65428;53.194;6.132;2022-12-18T06:31:11;70.47;;;35.47;;
76566;SDS011;65428;53.194;6.132;2022-12-18T06:33:37;72.10;;;36.75;;
76566;SDS011;65428;53.194;6.132;2022-12-18T06:36:07;62.85;;;34.22;;
76566;SDS011;65428;53.194;6.132;2022-12-18T06:38:35;65.20;;;34.47;;
76566;SDS011;65428;53.194;6.132;2022-12-18T06:41:08;67.30;;;35.17;;
76566;SDS011;65428;53.194;6.132;2022-12-18T06:43:44;67.40;;;34.37;;
76566;SDS011;65428;53.194;6.132;2022-12-18T06:46:10;62.47;;;33.38;;
76566;SDS011;65428;53.194;6.132;2022-12-18T06:48:37;64.65;;;33.70;;
76566;SDS011;65428;53.194;6.132;2022-12-18T06:51:02;63.57;;;33.63;;
76566;SDS011;65428;53.194;6.132;2022-12-18T06:53:29;63.33;;;33.20;;
76566;SDS011;65428;53.194;6.132;2022-12-18T06:56:02;61.25;;;32.85;;
76566;SDS011;65428;53.194;6.132;2022-12-18T06:58:28;60.00;;;32.78;;
76566;SDS011;65428;53.194;6.132;2022-12-18T07:00:58;61.67;;;32.27;;
76566;SDS011;65428;53.194;6.132;2022-12-18T07:03:25;63.35;;;33.22;;
76566;SDS011;65428;53.194;6.132;2022-12-18T07:05:51;58.67;;;31.55;;
76566;SDS011;65428;53.194;6.132;2022-12-18T07:08:17;62.53;;;33.17;;
76566;SDS011;65428;53.194;6.132;2022-12-18T07:10:43;60.70;;;31.90;;
76566;SDS011;65428;53.194;6.132;2022-12-18T07:13:09;58.28;;;32.17;;
76566;SDS011;65428;53.194;6.132;2022-12-18T07:15:34;60.70;;;32.33;;
76566;SDS011;65428;53.194;6.132;2022-12-18T07:18:00;56.40;;;30.05;;
76566;SDS011;65428;53.194;6.132;2022-12-18T07:20:25;56.33;;;30.67;;
76566;SDS011;65428;53.194;6.132;2022-12-18T07:22:51;59.67;;;31.60;;
76566;SDS011;65428;53.194;6.132;2022-12-18T07:25:17;57.85;;;29.73;;
76566;SDS011;65428;53.194;6.132;2022-12-18T07:27:42;58.00;;;30.15;;
76566;SDS011;65428;53.194;6.132;2022-12-18T07:30:08;53.83;;;29.73;;
76566;SDS011;65428;53.194;6.132;2022-12-18T07:32:34;52.15;;;28.33;;
76566;SDS011;65428;53.194;6.132;2022-12-18T07:35:00;51.35;;;29.17;;
76566;SDS011;65428;53.194;6.132;2022-12-18T07:37:25;51.13;;;28.80;;
76566;SDS011;65428;53.194;6.132;2022-12-18T07:39:51;57.10;;;31.00;;
76566;SDS011;65428;53.194;6.132;2022-12-18T07:42:17;50.35;;;27.98;;
76566;SDS011;65428;53.194;6.132;2022-12-18T07:44:58;48.75;;;27.13;;
76566;SDS011;65428;53.194;6.132;2022-12-18T07:47:25;50.45;;;27.95;;
76566;SDS011;65428;53.194;6.132;2022-12-18T07:49:51;50.97;;;28.08;;
76566;SDS011;65428;53.194;6.132;2022-12-18T07:52:16;50.13;;;28.77;;
76566;SDS011;65428;53.194;6.132;2022-12-18T07:54:42;47.13;;;27.63;;
76566;SDS011;65428;53.194;6.132;2022-12-18T07:57:08;50.33;;;27.67;;
76566;SDS011;65428;53.194;6.132;2022-12-18T07:59:34;55.03;;;28.42;;
76566;SDS011;65428;53.194;6.132;2022-12-18T08:01:59;51.87;;;29.03;;
76566;SDS011;65428;53.194;6.132;2022-12-18T08:04:25;51.13;;;28.52;;
76566;SDS011;65428;53.194;6.132;2022-12-18T08:06:51;47.08;;;27.20;;
76566;SDS011;65428;53.194;6.132;2022-12-18T08:09:17;48.47;;;28.10;;
76566;SDS011;65428;53.194;6.132;2022-12-18T08:11:43;45.97;;;26.77;;
76566;SDS011;65428;53.194;6.132;2022-12-18T08:14:09;45.17;;;27.42;;
76566;SDS011;65428;53.194;6.132;2022-12-18T08:16:34;48.15;;;27.00;;
76566;SDS011;65428;53.194;6.132;2022-12-18T08:19:00;44.30;;;27.17;;
76566;SDS011;65428;53.194;6.132;2022-12-18T08:21:27;45.22;;;27.27;;
76566;SDS011;65428;53.194;6.132;2022-12-18T08:23:55;44.50;;;26.97;;
76566;SDS011;65428;53.194;6.132;2022-12-18T08:26:23;44.20;;;26.23;;
76566;SDS011;65428;53.194;6.132;2022-12-18T08:28:50;40.85;;;25.83;;
76566;SDS011;65428;53.194;6.132;2022-12-18T08:31:16;43.20;;;26.63;;
76566;SDS011;65428;53.194;6.132;2022-12-18T08:33:43;41.80;;;25.75;;
76566;SDS011;65428;53.194;6.132;2022-12-18T08:36:09;41.93;;;26.87;;
76566;SDS011;65428;53.194;6.132;2022-12-18T08:38:35;41.75;;;26.48;;
76566;SDS011;65428;53.194;6.132;2022-12-18T08:41:08;39.85;;;25.25;;
76566;SDS011;65428;53.194;6.132;2022-12-18T08:43:35;40.30;;;24.70;;
76566;SDS011;65428;53.194;6.132;2022-12-18T08:46:20;39.03;;;24.77;;
76566;SDS011;65428;53.194;6.132;2022-12-18T08:48:46;40.08;;;24.88;;
76566;SDS011;65428;53.194;6.132;2022-12-18T08:51:13;37.93;;;24.53;;
76566;SDS011;65428;53.194;6.132;2022-12-18T08:53:40;37.30;;;24.08;;
76566;SDS011;65428;53.194;6.132;2022-12-18T08:56:07;36.25;;;23.08;;
76566;SDS011;65428;53.194;6.132;2022-12-18T08:58:32;35.15;;;22.92;;
76566;SDS011;65428;53.194;6.132;2022-12-18T09:01:05;34.97;;;23.00;;
76566;SDS011;65428;53.194;6.132;2022-12-18T09:03:34;34.22;;;22.52;;
76566;SDS011;65428;53.194;6.132;2022-12-18T09:06:00;34.78;;;22.27;;
76566;SDS011;65428;53.194;6.132;2022-12-18T09:08:26;33.28;;;21.70;;
76566;SDS011;65428;53.194;6.132;2022-12-18T09:10:52;33.25;;;22.27;;
76566;SDS011;65428;53.194;6.132;2022-12-18T09:13:18;35.20;;;23.23;;
76566;SDS011;65428;53.194;6.132;2022-12-18T09:15:45;31.92;;;22.55;;
76566;SDS011;65428;53.194;6.132;2022-12-18T09:18:12;32.97;;;23.57;;
76566;SDS011;65428;53.194;6.132;2022-12-18T09:20:39;31.17;;;21.10;;
76566;SDS011;65428;53.194;6.132;2022-12-18T09:23:05;29.67;;;20.65;;
76566;SDS011;65428;53.194;6.132;2022-12-18T09:25:32;28.77;;;19.85;;
76566;SDS011;65428;53.194;6.132;2022-12-18T09:28:04;28.27;;;19.70;;
76566;SDS011;65428;53.194;6.132;2022-12-18T09:30:44;26.23;;;18.97;;
76566;SDS011;65428;53.194;6.132;2022-12-18T09:33:11;26.88;;;19.05;;
76566;SDS011;65428;53.194;6.132;2022-12-18T09:35:38;26.40;;;18.85;;
76566;SDS011;65428;53.194;6.132;2022-12-18T09:38:04;23.13;;;16.98;;
76566;SDS011;65428;53.194;6.132;2022-12-18T09:40:34;24.88;;;18.10;;
76566;SDS011;65428;53.194;6.132;2022-12-18T09:43:05;26.42;;;17.83;;
76566;SDS011;65428;53.194;6.132;2022-12-18T09:45:40;25.38;;;18.13;;
76566;SDS011;65428;53.194;6.132;2022-12-18T09:48:15;27.97;;;19.23;;
76566;SDS011;65428;53.194;6.132;2022-12-18T09:50:47;28.85;;;20.15;;
76566;SDS011;65428;53.194;6.132;2022-12-18T09:53:15;29.27;;;20.20;;
76566;SDS011;65428;53.194;6.132;2022-12-18T09:55:46;25.70;;;19.60;;
76566;SDS011;65428;53.194;6.132;2022-12-18T10:00:45;25.25;;;18.77;;
76566;SDS011;65428;53.194;6.132;2022-12-18T10:03:11;25.70;;;19.33;;
76566;SDS011;65428;53.194;6.132;2022-12-18T10:19:34;26.10;;;18.42;;
76566;SDS011;65428;53.194;6.132;2022-12-18T10:22:10;26.35;;;19.33;;
76566;SDS011;65428;53.194;6.132;2022-12-18T10:27:42;24.48;;;17.60;;
76566;SDS011;65428;53.194;6.132;2022-12-18T10:30:12;25.27;;;18.00;;
76566;SDS011;65428;53.194;6.132;2022-12-18T10:32:40;22.92;;;16.80;;
76566;SDS011;65428;53.194;6.132;2022-12-18T10:35:08;21.92;;;16.27;;
76566;SDS011;65428;53.194;6.132;2022-12-18T10:37:58;24.20;;;17.58;;
76566;SDS011;65428;53.194;6.132;2022-12-18T10:40:27;22.83;;;17.25;;
76566;SDS011;65428;53.194;6.132;2022-12-18T10:43:11;25.38;;;17.67;;
76566;SDS011;65428;53.194;6.132;2022-12-18T10:45:38;21.63;;;16.25;;
76566;SDS011;65428;53.194;6.132;2022-12-18T10:48:04;21.13;;;16.98;;
76566;SDS011;65428;53.194;6.132;2022-12-18T10:50:42;20.65;;;15.90;;
76566;SDS011;65428;53.194;6.132;2022-12-18T10:53:14;19.90;;;15.60;;
76566;SDS011;65428;53.194;6.132;2022-12-18T10:55:52;20.40;;;15.30;;
76566;SDS011;65428;53.194;6.132;2022-12-18T10:58:24;22.33;;;16.23;;
76566;SDS011;65428;53.194;6.132;2022-12-18T11:03:42;21.08;;;15.30;;
76566;SDS011;65428;53.194;6.132;2022-12-18T11:06:13;20.70;;;16.08;;
76566;SDS011;65428;53.194;6.132;2022-12-18T11:08:57;21.10;;;15.60;;
76566;SDS011;65428;53.194;6.132;2022-12-18T11:11:25;20.57;;;15.33;;
76566;SDS011;65428;53.194;6.132;2022-12-18T11:14:01;19.13;;;14.27;;
76566;SDS011;65428;53.194;6.132;2022-12-18T11:16:30;20.25;;;14.52;;
76566;SDS011;65428;53.194;6.132;2022-12-18T11:19:19;18.15;;;13.52;;
76566;SDS011;65428;53.194;6.132;2022-12-18T11:21:49;18.10;;;14.00;;
76566;SDS011;65428;53.194;6.132;2022-12-18T11:24:34;16.77;;;13.18;;
76566;SDS011;65428;53.194;6.132;2022-12-18T11:27:05;15.63;;;11.63;;
76566;SDS011;65428;53.194;6.132;2022-12-18T11:29:40;16.38;;;12.77;;
76566;SDS011;65428;53.194;6.132;2022-12-18T11:32:19;17.55;;;13.63;;
76566;SDS011;65428;53.194;6.132;2022-12-18T11:34:47;16.83;;;12.55;;
76566;SDS011;65428;53.194;6.132;2022-12-18T11:37:17;16.27;;;12.23;;
76566;SDS011;65428;53.194;6.132;2022-12-18T11:39:56;16.13;;;12.43;;
76566;SDS011;65428;53.194;6.132;2022-12-18T11:42:37;15.63;;;11.57;;
76566;SDS011;65428;53.194;6.132;2022-12-18T11:50:18;15.50;;;11.80;;
76566;SDS011;65428;53.194;6.132;2022-12-18T11:52:47;15.43;;;11.68;;
76566;SDS011;65428;53.194;6.132;2022-12-18T11:55:31;13.20;;;10.68;;
76566;SDS011;65428;53.194;6.132;2022-12-18T11:58:03;13.43;;;10.70;;
76566;SDS011;65428;53.194;6.132;2022-12-18T12:04:11;13.57;;;10.35;;
76566;SDS011;65428;53.194;6.132;2022-12-18T12:12:01;13.23;;;10.40;;
76566;SDS011;65428;53.194;6.132;2022-12-18T12:17:45;13.05;;;10.05;;
76566;SDS011;65428;53.194;6.132;2022-12-18T12:20:37;14.18;;;10.52;;
76566;SDS011;65428;53.194;6.132;2022-12-18T12:34:07;9.73;;;7.20;;
76566;SDS011;65428;53.194;6.132;2022-12-18T12:39:36;9.18;;;6.53;;
76566;SDS011;65428;53.194;6.132;2022-12-18T12:42:05;8.82;;;6.95;;
76566;SDS011;65428;53.194;6.132;2022-12-18T12:45:05;8.43;;;6.30;;
76566;SDS011;65428;53.194;6.132;2022-12-18T12:47:33;8.90;;;6.68;;
76566;SDS011;65428;53.194;6.132;2022-12-18T12:50:05;8.23;;;6.45;;
76566;SDS011;65428;53.194;6.132;2022-12-18T12:52:42;7.07;;;5.65;;
76566;SDS011;65428;53.194;6.132;2022-12-18T12:55:16;9.00;;;6.20;;
76566;SDS011;65428;53.194;6.132;2022-12-18T12:57:54;7.18;;;6.00;;
76566;SDS011;65428;53.194;6.132;2022-12-18T13:00:21;7.70;;;6.43;;
76566;SDS011;65428;53.194;6.132;2022-12-18T13:05:43;8.13;;;6.47;;
76566;SDS011;65428;53.194;6.132;2022-12-18T13:08:22;7.57;;;5.70;;
76566;SDS011;65428;53.194;6.132;2022-12-18T13:10:50;8.30;;;5.97;;
76566;SDS011;65428;53.194;6.132;2022-12-18T13:13:47;8.00;;;5.95;;
76566;SDS011;65428;53.194;6.132;2022-12-18T13:16:18;8.40;;;6.70;;
76566;SDS011;65428;53.194;6.132;2022-12-18T13:18:52;8.00;;;5.97;;
76566;SDS011;65428;53.194;6.132;2022-12-18T13:21:27;8.98;;;6.00;;
76566;SDS011;65428;53.194;6.132;2022-12-18T13:24:14;7.55;;;5.68;;
76566;SDS011;65428;53.194;6.132;2022-12-18T13:26:45;7.85;;;5.85;;
76566;SDS011;65428;53.194;6.132;2022-12-18T13:29:11;7.67;;;5.97;;
76566;SDS011;65428;53.194;6.132;2022-12-18T13:36:37;7.82;;;6.25;;
76566;SDS011;65428;53.194;6.132;2022-12-18T13:39:11;9.03;;;6.60;;
76566;SDS011;65428;53.194;6.132;2022-12-18T13:41:40;7.43;;;6.22;;
76566;SDS011;65428;53.194;6.132;2022-12-18T13:44:11;8.65;;;6.72;;
76566;SDS011;65428;53.194;6.132;2022-12-18T13:46:46;8.82;;;6.60;;
76566;SDS011;65428;53.194;6.132;2022-12-18T13:51:43;9.45;;;7.07;;
76566;SDS011;65428;53.194;6.132;2022-12-18T13:56:59;8.80;;;7.40;;
76566;SDS011;65428;53.194;6.132;2022-12-18T13:59:46;8.85;;;7.40;;
76566;SDS011;65428;53.194;6.132;2022-12-18T14:02:21;10.23;;;7.78;;
76566;SDS011;65428;53.194;6.132;2022-12-18T14:04:48;10.38;;;8.02;;
76566;SDS011;65428;53.194;6.132;2022-12-18T14:07:16;8.70;;;7.75;;
76566;SDS011;65428;53.194;6.132;2022-12-18T14:09:53;11.00;;;8.60;;
76566;SDS011;65428;53.194;6.132;2022-12-18T14:15:17;12.77;;;9.93;;
76566;SDS011;65428;53.194;6.132;2022-12-18T14:20:23;10.00;;;7.70;;
76566;SDS011;65428;53.194;6.132;2022-12-18T14:22:50;10.37;;;7.23;;
76566;SDS011;65428;53.194;6.132;2022-12-18T14:25:18;8.73;;;6.53;;
76566;SDS011;65428;53.194;6.132;2022-12-18T14:33:00;10.02;;;6.57;;
76566;SDS011;65428;53.194;6.132;2022-12-18T14:35:41;8.52;;;6.18;;
76566;SDS011;65428;53.194;6.132;2022-12-18T14:38:21;9.48;;;7.38;;
76566;SDS011;65428;53.194;6.132;2022-12-18T14:40:58;9.55;;;6.78;;
76566;SDS011;65428;53.194;6.132;2022-12-18T14:43:31;8.55;;;6.78;;
76566;SDS011;65428;53.194;6.132;2022-12-18T14:45:58;8.65;;;7.30;;
76566;SDS011;65428;53.194;6.132;2022-12-18T14:51:01;9.07;;;6.90;;
76566;SDS011;65428;53.194;6.132;2022-12-18T14:53:35;10.05;;;6.97;;
76566;SDS011;65428;53.194;6.132;2022-12-18T14:56:14;8.35;;;6.65;;
76566;SDS011;65428;53.194;6.132;2022-12-18T15:01:24;9.52;;;7.03;;
76566;SDS011;65428;53.194;6.132;2022-12-18T15:03:55;9.20;;;7.28;;
76566;SDS011;65428;53.194;6.132;2022-12-18T15:08:56;11.55;;;9.10;;
76566;SDS011;65428;53.194;6.132;2022-12-18T15:11:43;13.20;;;9.75;;
76566;SDS011;65428;53.194;6.132;2022-12-18T15:14:23;10.97;;;8.87;;
76566;SDS011;65428;53.194;6.132;2022-12-18T15:16:56;9.98;;;8.05;;
76566;SDS011;65428;53.194;6.132;2022-12-18T15:19:32;10.43;;;8.00;;
76566;SDS011;65428;53.194;6.132;2022-12-18T15:21:58;9.23;;;7.07;;
76566;SDS011;65428;53.194;6.132;2022-12-18T15:24:26;8.55;;;6.32;;
76566;SDS011;65428;53.194;6.132;2022-12-18T15:26:55;9.17;;;6.83;;
76566;SDS011;65428;53.194;6.132;2022-12-18T15:29:21;7.80;;;5.87;;
76566;SDS011;65428;53.194;6.132;2022-12-18T15:32:00;8.23;;;6.55;;
76566;SDS011;65428;53.194;6.132;2022-12-18T15:34:27;8.05;;;6.45;;
76566;SDS011;65428;53.194;6.132;2022-12-18T15:36:53;7.60;;;5.80;;
76566;SDS011;65428;53.194;6.132;2022-12-18T15:39:19;8.93;;;5.88;;
76566;SDS011;65428;53.194;6.132;2022-12-18T15:41:44;9.00;;;6.10;;
76566;SDS011;65428;53.194;6.132;2022-12-18T15:44:30;7.70;;;5.32;;
76566;SDS011;65428;53.194;6.132;2022-12-18T15:46:56;7.87;;;6.03;;
76566;SDS011;65428;53.194;6.132;2022-12-18T15:49:22;8.82;;;6.38;;
76566;SDS011;65428;53.194;6.132;2022-12-18T15:51:58;8.65;;;6.80;;
76566;SDS011;65428;53.194;6.132;2022-12-18T15:54:26;7.32;;;6.07;;
76566;SDS011;65428;53.194;6.132;2022-12-18T15:57:10;8.90;;;6.90;;
76566;SDS011;65428;53.194;6.132;2022-12-18T15:59:49;9.68;;;7.22;;
76566;SDS011;65428;53.194;6.132;2022-12-18T16:02:20;11.60;;;8.70;;
76566;SDS011;65428;53.194;6.132;2022-12-18T16:04:47;12.23;;;9.38;;
76566;SDS011;65428;53.194;6.132;2022-12-18T16:07:13;12.80;;;9.25;;
76566;SDS011;65428;53.194;6.132;2022-12-18T16:09:39;11.75;;;8.55;;
76566;SDS011;65428;53.194;6.132;2022-12-18T16:12:08;11.25;;;7.95;;
76566;SDS011;65428;53.194;6.132;2022-12-18T16:14:44;10.23;;;7.07;;
76566;SDS011;65428;53.194;6.132;2022-12-18T16:17:10;9.98;;;7.50;;
76566;SDS011;65428;53.194;6.132;2022-12-18T16:19:37;11.73;;;8.63;;
76566;SDS011;65428;53.194;6.132;2022-12-18T16:22:03;13.33;;;8.97;;
76566;SDS011;65428;53.194;6.132;2022-12-18T16:24:30;10.35;;;7.43;;
76566;SDS011;65428;53.194;6.132;2022-12-18T16:26:58;9.65;;;7.15;;